Time;durP1;ratioP1;P1;durP2;ratioP2;P2;SDS_P1;SDS_P2;PMS_P1;PMS_P2;Temp;Humidity;BMP_temperature;BMP_pressure;BME280_temperature;BME280_humidity;BME280_pressure;Samples;Min_cycle;Max_cycle;Signal;HPM_P1;HPM_P2
2023/09/14 00:00:59;;;;;;;12.13;4.47;;;13.20;99.90;;;;;;5100122;28;20383;-67
2023/09/14 00:03:25;;;;;;;13.27;5.07;;;13.20;99.90;;;;;;5097424;28;20036;-65
2023/09/14 00:05:51;;;;;;;13.20;5.15;;;13.20;99.90;;;;;;5097522;28;20352;-67
2023/09/14 00:08:21;;;;;;;12.60;5.00;;;13.10;99.90;;;;;;5101422;28;20051;-67
2023/09/14 00:10:53;;;;;;;10.75;4.72;;;13.00;99.90;;;;;;5103688;28;20031;-66
2023/09/14 00:13:18;;;;;;;9.73;4.30;;;13.00;99.90;;;;;;5104115;28;20103;-67
2023/09/14 00:15:44;;;;;;;11.77;4.28;;;13.00;99.90;;;;;;5101853;28;20111;-66
2023/09/14 00:18:09;;;;;;;10.35;4.78;;;13.00;99.90;;;;;;5103312;28;20031;-66
2023/09/14 00:20:35;;;;;;;10.25;4.57;;;12.90;99.90;;;;;;5103142;28;20100;-66
2023/09/14 00:23:00;;;;;;;9.60;4.28;;;12.90;99.90;;;;;;5099223;28;20031;-66
2023/09/14 00:25:26;;;;;;;12.18;4.93;;;12.80;99.90;;;;;;5103763;28;20028;-65
2023/09/14 00:27:53;;;;;;;12.02;4.80;;;12.70;99.90;;;;;;5103472;28;20028;-66
2023/09/14 00:30:20;;;;;;;14.93;5.40;;;12.70;99.90;;;;;;5100495;28;20124;-66
2023/09/14 00:32:49;;;;;;;11.20;5.35;;;12.80;99.90;;;;;;5102212;28;20568;-66
2023/09/14 00:35:15;;;;;;;16.33;5.38;;;12.80;99.90;;;;;;5096825;28;20039;-66
2023/09/14 00:37:42;;;;;;;16.75;5.40;;;12.80;99.90;;;;;;5102992;28;20103;-67
2023/09/14 00:40:09;;;;;;;11.60;4.80;;;12.90;99.90;;;;;;5098924;28;20055;-67
2023/09/14 00:42:52;;;;;;;12.60;5.00;;;12.90;99.90;;;;;;5102067;28;20024;-67
2023/09/14 00:45:20;;;;;;;12.48;4.88;;;12.90;99.90;;;;;;5102917;28;20112;-66
2023/09/14 00:47:57;;;;;;;14.55;5.32;;;12.90;99.90;;;;;;5099110;28;20028;-67
2023/09/14 00:50:23;;;;;;;13.48;5.55;;;13.00;99.90;;;;;;5100149;28;20023;-65
2023/09/14 00:52:53;;;;;;;15.23;5.07;;;12.90;99.90;;;;;;5099922;28;20042;-66
2023/09/14 00:55:19;;;;;;;13.43;5.10;;;12.90;99.90;;;;;;5099738;28;20036;-65
2023/09/14 00:57:49;;;;;;;11.40;5.18;;;12.80;99.90;;;;;;5100497;28;20024;-66
2023/09/14 01:00:16;;;;;;;10.50;4.70;;;12.80;99.90;;;;;;5099786;28;20510;-66
2023/09/14 01:02:42;;;;;;;10.50;4.03;;;12.80;99.90;;;;;;5103803;28;20093;-66
2023/09/14 01:05:08;;;;;;;10.75;4.25;;;12.70;99.90;;;;;;5101680;28;20059;-66
2023/09/14 01:07:34;;;;;;;11.50;4.35;;;12.60;99.90;;;;;;5104722;28;20423;-67
2023/09/14 01:10:00;;;;;;;13.73;4.72;;;12.60;99.90;;;;;;5112573;28;20028;-65
2023/09/14 01:12:26;;;;;;;10.82;4.63;;;12.60;99.90;;;;;;5098133;28;20020;-66
2023/09/14 01:15:15;;;;;;;11.73;4.80;;;12.50;99.90;;;;;;5109056;28;20024;-66
2023/09/14 01:17:50;;;;;;;15.57;4.75;;;12.50;99.90;;;;;;5103236;28;20028;-65
2023/09/14 01:20:53;;;;;;;10.07;4.30;;;12.40;99.90;;;;;;5099541;28;20020;-66
2023/09/14 01:23:38;;;;;;;10.40;4.47;;;12.40;99.90;;;;;;5104121;28;20454;-67
2023/09/14 01:26:04;;;;;;;11.63;4.97;;;12.30;99.90;;;;;;5116088;28;20059;-65
2023/09/14 01:28:30;;;;;;;10.27;4.68;;;12.30;99.90;;;;;;5099375;28;20510;-65
2023/09/14 01:30:55;;;;;;;16.23;4.65;;;12.30;99.90;;;;;;5112122;28;20020;-65
2023/09/14 01:33:24;;;;;;;9.55;4.75;;;12.30;99.90;;;;;;5104014;28;20391;-67
2023/09/14 01:36:03;;;;;;;11.75;5.50;;;12.20;99.90;;;;;;5115374;28;20114;-66
2023/09/14 01:38:30;;;;;;;12.18;5.20;;;12.20;99.90;;;;;;5099362;28;20117;-64
2023/09/14 01:40:56;;;;;;;11.93;4.45;;;12.20;99.90;;;;;;5112310;28;20033;-66
2023/09/14 01:43:23;;;;;;;14.88;5.07;;;12.20;99.90;;;;;;5115772;28;20039;-66
2023/09/14 01:45:49;;;;;;;12.88;4.90;;;12.20;99.90;;;;;;5116305;28;20112;-65
2023/09/14 01:48:16;;;;;;;13.48;4.80;;;12.30;99.90;;;;;;5111671;28;20034;-66
2023/09/14 01:50:41;;;;;;;14.48;5.30;;;12.30;99.90;;;;;;5113724;28;20519;-65
2023/09/14 01:53:07;;;;;;;8.23;4.82;;;12.30;99.90;;;;;;5102203;28;20102;-66
2023/09/14 01:55:33;;;;;;;11.52;4.88;;;12.40;99.90;;;;;;5106068;28;20059;-66
2023/09/14 01:57:58;;;;;;;12.05;4.53;;;12.40;99.90;;;;;;5109312;28;20073;-66
2023/09/14 02:00:26;;;;;;;13.35;5.18;;;12.40;99.90;;;;;;5110352;28;20055;-66
2023/09/14 02:02:54;;;;;;;8.23;4.55;;;12.40;99.90;;;;;;5108731;28;20065;-66
2023/09/14 02:05:20;;;;;;;10.82;5.30;;;12.40;99.90;;;;;;5102896;28;20039;-66
2023/09/14 02:07:47;;;;;;;12.32;5.07;;;12.30;99.90;;;;;;5104287;28;20016;-64
2023/09/14 02:10:16;;;;;;;16.08;5.95;;;12.40;99.90;;;;;;5110510;28;20032;-66
2023/09/14 02:12:42;;;;;;;15.45;6.53;;;12.40;99.90;;;;;;5099134;28;20029;-65
2023/09/14 02:15:11;;;;;;;13.23;5.95;;;12.50;99.90;;;;;;5109788;28;20028;-65
2023/09/14 02:17:36;;;;;;;19.67;6.57;;;12.50;99.90;;;;;;5100358;28;20108;-65
2023/09/14 02:20:05;;;;;;;13.73;5.63;;;12.60;99.90;;;;;;5109167;28;20559;-65
2023/09/14 02:22:30;;;;;;;13.90;6.43;;;12.60;99.90;;;;;;5098691;28;20112;-65
2023/09/14 02:24:56;;;;;;;18.60;7.85;;;12.70;99.90;;;;;;5110587;28;20119;-65
2023/09/14 02:27:21;;;;;;;17.42;6.80;;;12.70;99.90;;;;;;5103142;28;20031;-66
2023/09/14 02:29:47;;;;;;;18.73;7.25;;;12.80;99.90;;;;;;5103475;28;20020;-66
2023/09/14 02:32:13;;;;;;;20.67;7.85;;;12.80;99.90;;;;;;5108911;28;20356;-66
2023/09/14 02:34:38;;;;;;;20.75;7.20;;;12.80;99.90;;;;;;5098128;28;20111;-64
2023/09/14 02:37:04;;;;;;;22.48;7.80;;;12.90;99.90;;;;;;5108388;28;20090;-65
2023/09/14 02:39:30;;;;;;;25.33;8.35;;;12.90;99.90;;;;;;5105695;28;20460;-65
2023/09/14 02:41:55;;;;;;;20.55;7.32;;;12.90;99.90;;;;;;5107396;28;20031;-66
2023/09/14 02:44:21;;;;;;;24.17;8.48;;;12.90;99.90;;;;;;5098279;28;20084;-65
2023/09/14 02:46:46;;;;;;;26.75;8.50;;;13.00;99.90;;;;;;5111225;28;20100;-66
2023/09/14 02:49:12;;;;;;;25.75;9.18;;;13.00;99.90;;;;;;5101317;28;20389;-67
2023/09/14 02:51:38;;;;;;;25.17;8.73;;;13.10;99.90;;;;;;5104397;28;20468;-65
2023/09/14 02:54:03;;;;;;;23.35;8.00;;;13.00;99.90;;;;;;5108410;28;20114;-65
2023/09/14 02:56:29;;;;;;;24.30;8.32;;;13.10;99.90;;;;;;5097960;28;20391;-66
2023/09/14 02:58:55;;;;;;;19.35;8.48;;;13.10;99.90;;;;;;5110450;28;20020;-65
2023/09/14 03:01:20;;;;;;;24.20;8.00;;;13.10;99.90;;;;;;5097777;28;20017;-65
2023/09/14 03:03:47;;;;;;;24.48;8.30;;;13.10;99.90;;;;;;5105834;28;20034;-65
2023/09/14 03:06:12;;;;;;;25.05;8.20;;;13.10;99.90;;;;;;5100040;27;20035;-65
2023/09/14 03:08:38;;;;;;;20.85;7.85;;;13.10;99.90;;;;;;5112523;28;20031;-65
2023/09/14 03:11:04;;;;;;;20.83;7.57;;;13.10;99.90;;;;;;5099509;28;20085;-65
2023/09/14 03:13:30;;;;;;;22.60;7.50;;;13.10;99.90;;;;;;5105429;28;20028;-65
2023/09/14 03:15:58;;;;;;;21.48;7.75;;;13.10;99.90;;;;;;5107139;28;20417;-65
2023/09/14 03:18:24;;;;;;;22.30;7.25;;;13.10;99.90;;;;;;5097512;28;20032;-65
2023/09/14 03:20:52;;;;;;;21.77;7.45;;;13.10;99.90;;;;;;5097420;28;20050;-64
2023/09/14 03:23:18;;;;;;;21.05;6.70;;;13.10;99.90;;;;;;5106681;28;20444;-65
2023/09/14 03:25:44;;;;;;;21.13;6.03;;;13.10;99.90;;;;;;5105027;28;20178;-65
2023/09/14 03:28:10;;;;;;;19.00;6.25;;;13.10;99.90;;;;;;5099431;28;20020;-65
2023/09/14 03:30:36;;;;;;;20.95;6.80;;;13.10;99.90;;;;;;5110284;28;20031;-65
2023/09/14 03:33:02;;;;;;;20.17;6.65;;;13.10;99.90;;;;;;5098835;28;20020;-65
2023/09/14 03:35:27;;;;;;;19.30;6.65;;;13.10;99.90;;;;;;5104981;28;20024;-65
2023/09/14 03:37:53;;;;;;;20.67;6.22;;;13.10;99.90;;;;;;5112536;28;20356;-65
2023/09/14 03:40:18;;;;;;;15.75;5.75;;;13.10;99.90;;;;;;5098123;28;20372;-65
2023/09/14 03:42:44;;;;;;;17.67;6.82;;;13.10;99.90;;;;;;5110083;28;20028;-64
2023/09/14 03:45:09;;;;;;;14.95;6.57;;;13.00;99.90;;;;;;5099669;28;20042;-65
2023/09/14 03:47:35;;;;;;;20.15;6.40;;;13.00;99.90;;;;;;5103645;28;20503;-64
2023/09/14 03:50:01;;;;;;;13.80;5.80;;;13.00;99.90;;;;;;5107104;28;20103;-65
2023/09/14 03:52:26;;;;;;;19.48;6.13;;;12.90;99.90;;;;;;5096717;28;20032;-65
2023/09/14 03:54:52;;;;;;;15.85;5.80;;;12.90;99.90;;;;;;5112471;28;20015;-65
2023/09/14 03:57:17;;;;;;;18.75;5.47;;;12.90;99.90;;;;;;5113584;28;20068;-64
2023/09/14 03:59:44;;;;;;;18.88;6.03;;;12.90;99.90;;;;;;5111320;28;20099;-66
2023/09/14 04:02:10;;;;;;;12.57;4.53;;;12.80;99.90;;;;;;5102402;28;20031;-66
2023/09/14 04:04:39;;;;;;;13.77;5.53;;;12.80;99.90;;;;;;5110316;28;20036;-64
2023/09/14 04:07:05;;;;;;;14.18;6.13;;;12.70;99.90;;;;;;5099087;28;20073;-67
2023/09/14 04:09:30;;;;;;;16.25;5.55;;;12.70;99.90;;;;;;5104369;28;20484;-66
2023/09/14 04:11:56;;;;;;;16.17;6.13;;;12.70;99.90;;;;;;5097017;28;20498;-64
2023/09/14 04:14:22;;;;;;;15.48;5.30;;;12.70;99.90;;;;;;5109918;28;20491;-64
2023/09/14 04:16:47;;;;;;;17.65;5.28;;;12.70;99.90;;;;;;5096424;28;20031;-63
2023/09/14 04:19:14;;;;;;;14.55;5.45;;;12.70;99.90;;;;;;5106926;28;20036;-64
2023/09/14 04:21:41;;;;;;;14.75;5.82;;;12.70;99.90;;;;;;5103537;28;20024;-66
2023/09/14 04:24:07;;;;;;;13.15;5.63;;;12.70;99.90;;;;;;5099225;28;20122;-64
2023/09/14 04:26:33;;;;;;;17.13;6.10;;;12.60;99.90;;;;;;5110554;28;20192;-65
2023/09/14 04:28:58;;;;;;;18.35;5.70;;;12.60;99.90;;;;;;5098126;28;20088;-64
2023/09/14 04:31:25;;;;;;;14.75;5.72;;;12.60;99.90;;;;;;5105148;28;20039;-64
2023/09/14 04:33:51;;;;;;;20.23;6.40;;;12.60;99.90;;;;;;5104925;28;20360;-63
2023/09/14 04:36:16;;;;;;;18.23;5.30;;;12.60;99.90;;;;;;5097730;28;20028;-65
2023/09/14 04:38:42;;;;;;;16.65;6.15;;;12.60;99.90;;;;;;5109973;28;20047;-64
2023/09/14 04:41:07;;;;;;;15.93;5.05;;;12.60;99.90;;;;;;5111933;28;20030;-64
2023/09/14 04:43:33;;;;;;;15.77;5.40;;;12.60;99.90;;;;;;5112026;28;20067;-64
2023/09/14 04:46:00;;;;;;;16.75;5.00;;;12.60;99.90;;;;;;5108658;28;20051;-64
2023/09/14 04:48:26;;;;;;;16.17;4.97;;;12.60;99.90;;;;;;5113015;28;20103;-65
2023/09/14 04:50:52;;;;;;;18.50;5.68;;;12.70;99.90;;;;;;5096503;28;20135;-65
2023/09/14 04:53:17;;;;;;;16.90;5.70;;;12.70;99.90;;;;;;5105911;28;20028;-64
2023/09/14 04:55:45;;;;;;;15.00;5.38;;;12.70;99.90;;;;;;5107444;28;20114;-65
2023/09/14 04:58:10;;;;;;;17.75;5.75;;;12.70;99.90;;;;;;5111711;28;20012;-65
2023/09/14 05:00:37;;;;;;;14.75;5.50;;;12.70;99.90;;;;;;5115385;28;20586;-64
2023/09/14 05:03:04;;;;;;;19.30;5.60;;;12.70;99.90;;;;;;5115456;28;20019;-65
2023/09/14 05:05:32;;;;;;;18.75;5.60;;;12.70;99.90;;;;;;5107627;28;20442;-65
2023/09/14 05:07:58;;;;;;;13.85;5.40;;;12.70;99.90;;;;;;5110859;28;20032;-64
2023/09/14 05:10:25;;;;;;;14.25;4.40;;;12.70;99.90;;;;;;5114569;28;20019;-66
2023/09/14 05:12:50;;;;;;;14.75;5.28;;;12.70;99.90;;;;;;5100337;28;20026;-66
2023/09/14 05:15:16;;;;;;;17.08;5.22;;;12.60;99.90;;;;;;5109955;28;20025;-65
2023/09/14 05:17:42;;;;;;;14.88;5.28;;;12.60;99.90;;;;;;5107296;28;20063;-64
2023/09/14 05:20:08;;;;;;;10.82;5.07;;;12.50;99.90;;;;;;5102341;28;20109;-64
2023/09/14 05:22:34;;;;;;;16.45;5.65;;;12.50;99.90;;;;;;5116139;28;20057;-65
2023/09/14 05:25:00;;;;;;;12.95;5.47;;;12.50;99.90;;;;;;5116457;28;20097;-65
2023/09/14 05:27:26;;;;;;;15.85;4.72;;;12.40;99.90;;;;;;5115408;28;20034;-65
2023/09/14 05:29:51;;;;;;;15.32;4.93;;;12.40;99.90;;;;;;5104067;28;20361;-65
2023/09/14 05:32:17;;;;;;;13.27;4.88;;;12.40;99.90;;;;;;5111965;28;20028;-65
2023/09/14 05:34:42;;;;;;;15.45;4.68;;;12.30;99.90;;;;;;5099435;28;20111;-64
2023/09/14 05:37:08;;;;;;;13.30;5.38;;;12.30;99.90;;;;;;5110499;28;20032;-64
2023/09/14 05:39:34;;;;;;;13.48;4.88;;;12.30;99.90;;;;;;5106197;28;20051;-64
2023/09/14 05:41:59;;;;;;;10.98;4.40;;;12.30;99.90;;;;;;5103196;28;20028;-65
2023/09/14 05:44:25;;;;;;;12.35;5.43;;;12.30;99.90;;;;;;5112667;28;20100;-66
2023/09/14 05:46:51;;;;;;;13.73;5.15;;;12.30;99.90;;;;;;5099433;28;20466;-65
2023/09/14 05:49:16;;;;;;;12.52;4.70;;;12.30;99.90;;;;;;5111014;28;20119;-64
2023/09/14 05:51:42;;;;;;;10.35;4.85;;;12.30;99.90;;;;;;5114934;28;20023;-65
2023/09/14 05:54:08;;;;;;;10.75;5.03;;;12.30;99.90;;;;;;5116477;28;20038;-66
2023/09/14 05:56:33;;;;;;;13.63;4.72;;;12.30;99.90;;;;;;5115226;28;20036;-65
2023/09/14 05:58:59;;;;;;;10.70;4.35;;;12.30;99.90;;;;;;5116281;28;20072;-64
2023/09/14 06:01:24;;;;;;;13.55;5.32;;;12.30;99.90;;;;;;5115731;28;20026;-65
2023/09/14 06:03:50;;;;;;;10.52;4.75;;;12.40;99.90;;;;;;5115883;28;20035;-65
2023/09/14 06:06:16;;;;;;;11.77;5.32;;;12.40;99.90;;;;;;5115014;28;20115;-66
2023/09/14 06:08:42;;;;;;;15.90;5.82;;;12.40;99.90;;;;;;5116220;28;20028;-66
2023/09/14 06:11:07;;;;;;;17.65;6.47;;;12.50;99.90;;;;;;5116225;28;20028;-65
2023/09/14 06:13:33;;;;;;;15.35;6.80;;;12.60;99.90;;;;;;5116436;28;20031;-64
2023/09/14 06:15:59;;;;;;;18.50;6.72;;;12.70;99.90;;;;;;5115767;28;20353;-64
2023/09/14 06:18:24;;;;;;;19.42;8.18;;;12.80;99.90;;;;;;5115568;28;20463;-63
2023/09/14 06:20:50;;;;;;;18.55;7.75;;;12.90;99.90;;;;;;5115904;28;20106;-65
2023/09/14 06:23:15;;;;;;;19.35;7.75;;;13.00;99.90;;;;;;5115759;28;20081;-65
2023/09/14 06:25:42;;;;;;;18.85;7.00;;;13.10;99.90;;;;;;5115591;28;20650;-66
2023/09/14 06:28:08;;;;;;;17.30;6.35;;;13.20;99.90;;;;;;5115806;28;20027;-64
2023/09/14 06:30:34;;;;;;;20.08;7.15;;;13.30;99.90;;;;;;5115413;28;20114;-65
2023/09/14 06:32:59;;;;;;;21.02;7.75;;;13.40;99.90;;;;;;5115073;28;20023;-64
2023/09/14 06:35:25;;;;;;;23.67;8.68;;;13.50;99.90;;;;;;5115914;28;20024;-65
2023/09/14 06:37:51;;;;;;;16.73;6.07;;;13.60;99.90;;;;;;5115638;28;20077;-65
2023/09/14 06:40:16;;;;;;;21.98;7.07;;;13.70;99.90;;;;;;5115871;28;20107;-64
2023/09/14 06:42:42;;;;;;;16.58;6.90;;;13.80;99.90;;;;;;5115747;28;20487;-65
2023/09/14 06:45:08;;;;;;;17.77;6.43;;;13.90;99.90;;;;;;5115390;28;20031;-65
2023/09/14 06:47:33;;;;;;;22.25;6.47;;;14.00;99.90;;;;;;5115247;28;20232;-65
2023/09/14 06:49:59;;;;;;;13.15;5.28;;;14.20;99.90;;;;;;5115667;28;20058;-65
2023/09/14 06:52:25;;;;;;;18.45;5.60;;;14.30;99.90;;;;;;5115317;28;20027;-65
2023/09/14 06:54:50;;;;;;;18.13;5.97;;;14.40;99.90;;;;;;5115312;28;20027;-65
2023/09/14 06:57:16;;;;;;;14.77;5.82;;;14.50;99.90;;;;;;5115212;28;20020;-65
2023/09/14 06:59:42;;;;;;;18.13;6.35;;;14.70;99.90;;;;;;5115233;28;20024;-65
2023/09/14 07:02:07;;;;;;;18.55;6.00;;;14.90;99.90;;;;;;5115008;28;20051;-64
2023/09/14 07:04:34;;;;;;;21.80;9.80;;;15.00;99.90;;;;;;5115055;28;20047;-64
2023/09/14 07:07:00;;;;;;;17.40;6.80;;;15.10;99.90;;;;;;5113293;28;20073;-65
2023/09/14 07:09:25;;;;;;;19.05;7.25;;;15.20;99.90;;;;;;5114713;28;20031;-65
2023/09/14 07:11:51;;;;;;;17.85;7.63;;;15.40;99.90;;;;;;5114141;28;20020;-64
2023/09/14 07:14:17;;;;;;;14.55;6.05;;;15.50;99.90;;;;;;5114483;28;20368;-64
2023/09/14 07:16:43;;;;;;;14.63;5.20;;;15.70;99.90;;;;;;5112644;28;20145;-63
2023/09/14 07:19:08;;;;;;;18.25;5.30;;;15.90;99.90;;;;;;5114395;28;20072;-63
2023/09/14 07:21:37;;;;;;;18.05;5.47;;;16.00;99.90;;;;;;5114705;28;20515;-65
2023/09/14 07:24:05;;;;;;;13.82;5.15;;;16.20;99.90;;;;;;5114339;28;20516;-65
2023/09/14 07:26:31;;;;;;;22.15;6.03;;;16.50;99.90;;;;;;5114616;28;20084;-65
2023/09/14 07:28:57;;;;;;;18.10;5.00;;;16.60;99.90;;;;;;5114488;28;20406;-64
2023/09/14 07:31:22;;;;;;;15.38;5.55;;;17.00;99.90;;;;;;5114367;28;20443;-65
2023/09/14 07:33:48;;;;;;;13.60;5.00;;;17.50;99.90;;;;;;5114356;28;20027;-64
2023/09/14 07:36:14;;;;;;;13.38;4.68;;;18.30;99.90;;;;;;5114030;28;20035;-65
2023/09/14 07:38:39;;;;;;;15.93;4.82;;;19.00;99.90;;;;;;5114294;28;20050;-63
2023/09/14 07:41:05;;;;;;;14.18;3.90;;;19.70;99.90;;;;;;5114422;28;20055;-64
2023/09/14 07:43:30;;;;;;;11.55;3.50;;;20.50;99.90;;;;;;5112570;28;20038;-64
2023/09/14 07:45:56;;;;;;;14.40;3.60;;;20.90;99.90;;;;;;5094635;28;20115;-65
2023/09/14 07:48:22;;;;;;;12.45;4.35;;;21.50;99.90;;;;;;5107195;28;20050;-63
2023/09/14 07:50:47;;;;;;;9.52;2.95;;;22.10;99.90;;;;;;5096882;28;20028;-65
2023/09/14 07:53:13;;;;;;;12.55;3.10;;;22.70;99.90;;;;;;5094043;28;20156;-65
2023/09/14 07:55:39;;;;;;;10.45;3.50;;;23.50;99.90;;;;;;5093488;28;20032;-65
2023/09/14 07:58:08;;;;;;;14.38;3.35;;;24.00;99.50;;;;;;5093693;28;20016;-66
2023/09/14 08:00:35;;;;;;;10.50;3.92;;;24.50;98.30;;;;;;5093555;28;20463;-64
2023/09/14 08:03:01;;;;;;;9.27;2.95;;;24.70;97.60;;;;;;5111924;28;20081;-64
2023/09/14 08:05:28;;;;;;;9.93;3.40;;;24.50;97.30;;;;;;5108618;28;20046;-64
2023/09/14 08:07:53;;;;;;;11.27;3.83;;;24.10;97.90;;;;;;5114061;28;20019;-64
2023/09/14 08:10:19;;;;;;;8.55;3.20;;;24.00;98.20;;;;;;5113590;28;20058;-64
2023/09/14 08:12:45;;;;;;;9.55;3.88;;;24.20;98.20;;;;;;5112735;28;20072;-64
2023/09/14 08:15:12;;;;;;;11.75;3.70;;;24.70;97.70;;;;;;5114200;28;20065;-65
2023/09/14 08:17:37;;;;;;;10.80;3.90;;;25.10;96.70;;;;;;5111488;28;20023;-64
2023/09/14 08:20:04;;;;;;;14.75;4.05;;;25.30;96.40;;;;;;5107083;28;20536;-65
2023/09/14 08:22:30;;;;;;;13.48;5.15;;;25.30;96.60;;;;;;5095834;28;20036;-65
2023/09/14 08:25:00;;;;;;;13.27;4.93;;;25.50;96.60;;;;;;5101771;28;20036;-64
2023/09/14 08:27:26;;;;;;;8.95;3.67;;;25.90;96.30;;;;;;5112808;28;20340;-66
2023/09/14 08:29:52;;;;;;;12.55;3.80;;;26.00;95.80;;;;;;5099021;28;20073;-65
2023/09/14 08:32:17;;;;;;;9.60;3.58;;;26.30;95.40;;;;;;5093365;28;20039;-64
2023/09/14 08:34:43;;;;;;;11.73;4.50;;;26.70;94.90;;;;;;5113124;28;20024;-65
2023/09/14 08:37:10;;;;;;;13.55;4.43;;;27.20;94.80;;;;;;5109974;28;20039;-63
2023/09/14 08:39:37;;;;;;;11.55;4.53;;;27.80;94.50;;;;;;5105474;28;20052;-65
2023/09/14 08:42:03;;;;;;;14.48;3.88;;;28.80;94.00;;;;;;5111441;28;20407;-65
2023/09/14 08:44:33;;;;;;;12.00;3.63;;;29.90;92.60;;;;;;5093163;28;20051;-64
2023/09/14 08:47:00;;;;;;;12.10;4.40;;;30.70;91.50;;;;;;5102808;28;20028;-65
2023/09/14 08:49:28;;;;;;;10.52;3.92;;;31.20;91.10;;;;;;5111472;28;20031;-65
2023/09/14 08:51:57;;;;;;;8.57;3.72;;;32.00;90.80;;;;;;5111010;28;20024;-66
2023/09/14 08:54:23;;;;;;;9.95;3.78;;;32.70;89.70;;;;;;5110952;28;20555;-65
2023/09/14 08:56:51;;;;;;;14.27;4.32;;;33.10;88.10;;;;;;5110452;28;20031;-65
2023/09/14 08:59:20;;;;;;;12.73;3.72;;;33.40;87.00;;;;;;5111333;28;20100;-65
2023/09/14 09:01:48;;;;;;;10.98;3.67;;;33.60;86.50;;;;;;5113523;28;20433;-64
2023/09/14 09:04:13;;;;;;;10.00;4.00;;;33.90;85.80;;;;;;5113608;28;20036;-66
2023/09/14 09:06:41;;;;;;;12.23;3.83;;;34.20;84.30;;;;;;5113449;28;20099;-65
2023/09/14 09:09:09;;;;;;;9.07;3.70;;;34.60;84.60;;;;;;5113389;28;20042;-66
2023/09/14 09:11:36;;;;;;;8.30;3.45;;;35.00;82.50;;;;;;5113089;28;20035;-66
2023/09/14 09:14:01;;;;;;;10.07;3.67;;;35.20;81.90;;;;;;5102579;28;20027;-65
2023/09/14 09:16:27;;;;;;;11.38;4.07;;;35.00;82.00;;;;;;5109427;28;20387;-63
2023/09/14 09:19:06;;;;;;;9.98;3.38;;;34.90;82.30;;;;;;5109983;28;20028;-65
2023/09/14 09:21:35;;;;;;;8.88;3.30;;;34.90;81.10;;;;;;5109816;28;20032;-64
2023/09/14 09:24:04;;;;;;;9.10;3.22;;;35.10;81.20;;;;;;5104186;28;20503;-65
2023/09/14 09:26:37;;;;;;;7.78;3.67;;;35.60;80.00;;;;;;5095514;28;20023;-65
2023/09/14 09:29:16;;;;;;;7.40;3.15;;;36.00;79.60;;;;;;5106570;28;20059;-65
2023/09/14 09:31:44;;;;;;;8.38;3.38;;;35.70;77.60;;;;;;5112620;28;20081;-65
2023/09/14 09:34:11;;;;;;;7.95;3.10;;;35.00;78.30;;;;;;5103732;28;20495;-66
2023/09/14 09:36:38;;;;;;;12.00;3.00;;;34.50;78.00;;;;;;5103358;28;20615;-65
2023/09/14 09:39:05;;;;;;;6.13;2.60;;;33.90;79.20;;;;;;5099292;28;20050;-65
2023/09/14 09:41:34;;;;;;;9.63;3.47;;;33.30;78.40;;;;;;5101753;28;20071;-65
2023/09/14 09:44:09;;;;;;;10.55;3.55;;;33.10;79.60;;;;;;5103308;28;20040;-66
2023/09/14 09:46:35;;;;;;;6.97;3.35;;;33.50;80.30;;;;;;5100629;28;20036;-65
2023/09/14 09:49:22;;;;;;;7.60;3.30;;;33.70;78.90;;;;;;5111186;28;20036;-65
2023/09/14 09:51:50;;;;;;;8.75;3.60;;;33.90;79.90;;;;;;5113905;28;20435;-67
2023/09/14 09:54:19;;;;;;;9.38;3.20;;;34.10;79.20;;;;;;5116143;28;20032;-66
2023/09/14 09:56:44;;;;;;;9.55;3.20;;;34.70;78.80;;;;;;5116233;28;20038;-66
2023/09/14 09:59:10;;;;;;;11.23;3.35;;;35.20;76.10;;;;;;5116190;28;20114;-64
2023/09/14 10:01:37;;;;;;;8.82;3.58;;;35.00;77.60;;;;;;5116050;28;20074;-65
2023/09/14 10:04:11;;;;;;;11.50;3.05;;;35.30;78.40;;;;;;5116737;28;20081;-66
2023/09/14 10:06:40;;;;;;;7.75;3.15;;;35.70;76.40;;;;;;5116592;28;20034;-66
2023/09/14 10:09:11;;;;;;;9.90;4.10;;;35.70;75.70;;;;;;5116290;28;20122;-66
2023/09/14 10:11:37;;;;;;;10.57;3.50;;;35.70;76.00;;;;;;5115742;28;20105;-66
2023/09/14 10:14:04;;;;;;;7.72;2.90;;;35.80;76.70;;;;;;5115782;28;20036;-66
2023/09/14 10:16:35;;;;;;;6.93;2.90;;;36.30;76.10;;;;;;5115725;28;20480;-66
2023/09/14 10:19:02;;;;;;;7.40;2.88;;;36.70;74.30;;;;;;5115806;28;20039;-66
2023/09/14 10:21:29;;;;;;;8.57;3.00;;;35.90;71.70;;;;;;5115834;28;20122;-66
2023/09/14 10:23:55;;;;;;;6.90;2.67;;;34.50;71.90;;;;;;5115409;28;20071;-65
2023/09/14 10:26:20;;;;;;;10.20;3.17;;;33.30;72.90;;;;;;5115962;28;20096;-65
2023/09/14 10:28:46;;;;;;;8.07;3.53;;;32.70;75.80;;;;;;5116113;28;20367;-66
2023/09/14 10:31:13;;;;;;;12.82;3.80;;;32.30;76.50;;;;;;5115117;28;20024;-66
2023/09/14 10:33:45;;;;;;;8.15;3.63;;;31.40;78.40;;;;;;5116006;28;20040;-66
2023/09/14 10:36:12;;;;;;;9.25;3.67;;;30.80;80.20;;;;;;5115824;28;20027;-67
2023/09/14 10:38:42;;;;;;;11.40;3.80;;;30.70;81.40;;;;;;5109632;28;20428;-67
2023/09/14 10:41:08;;;;;;;7.40;3.13;;;30.40;81.10;;;;;;5115422;28;20352;-66
2023/09/14 10:43:33;;;;;;;8.63;3.67;;;30.10;81.40;;;;;;5114939;28;20037;-66
2023/09/14 10:46:01;;;;;;;7.18;3.40;;;30.50;80.10;;;;;;5114969;28;20061;-66
2023/09/14 10:48:29;;;;;;;8.20;2.97;;;31.30;79.20;;;;;;5115010;28;20031;-66
2023/09/14 10:50:58;;;;;;;8.18;3.60;;;32.30;78.70;;;;;;5114563;28;20032;-67
2023/09/14 10:53:24;;;;;;;9.35;3.83;;;33.40;76.70;;;;;;5114042;28;20027;-66
2023/09/14 10:55:50;;;;;;;9.75;3.30;;;34.00;77.10;;;;;;5114450;28;20024;-67
2023/09/14 10:58:16;;;;;;;7.75;3.55;;;34.80;75.40;;;;;;5115232;27;20364;-66
2023/09/14 11:00:46;;;;;;;10.43;3.35;;;35.30;74.10;;;;;;5115300;28;20027;-67
2023/09/14 11:03:13;;;;;;;9.38;3.33;;;35.70;74.40;;;;;;5115109;28;20027;-66
2023/09/14 11:05:43;;;;;;;11.18;4.40;;;36.20;73.70;;;;;;5114771;28;20088;-66
2023/09/14 11:08:10;;;;;;;9.63;3.78;;;36.70;73.00;;;;;;5113634;28;20023;-66
2023/09/14 11:10:37;;;;;;;7.25;3.33;;;36.70;73.30;;;;;;5115276;28;20035;-65
2023/09/14 11:13:21;;;;;;;9.85;3.60;;;36.80;72.60;;;;;;5114866;28;20489;-66
2023/09/14 11:15:53;;;;;;;10.45;3.78;;;36.90;72.00;;;;;;5114801;28;20078;-66
2023/09/14 11:18:19;;;;;;;8.30;3.33;;;36.60;72.30;;;;;;5113277;28;20051;-66
2023/09/14 11:20:46;;;;;;;8.50;3.45;;;36.60;71.20;;;;;;5114601;28;20039;-66
2023/09/14 11:23:11;;;;;;;8.57;3.38;;;36.50;71.70;;;;;;5113333;28;20019;-67
2023/09/14 11:25:41;;;;;;;9.25;4.00;;;36.40;70.80;;;;;;5114892;28;20122;-66
2023/09/14 11:28:08;;;;;;;9.70;3.67;;;36.40;71.20;;;;;;5114606;28;20028;-67
2023/09/14 11:30:42;;;;;;;8.70;3.25;;;36.60;69.60;;;;;;5112557;28;20040;-67
2023/09/14 11:33:09;;;;;;;8.43;2.95;;;36.90;69.10;;;;;;5099011;28;20036;-66
2023/09/14 11:35:40;;;;;;;6.20;2.85;;;36.70;69.40;;;;;;5114291;28;20379;-67
2023/09/14 11:38:22;;;;;;;8.57;3.50;;;36.50;69.20;;;;;;5114387;28;20054;-67
2023/09/14 11:40:47;;;;;;;9.75;3.40;;;36.20;69.00;;;;;;5113945;28;20475;-66
2023/09/14 11:43:21;;;;;;;7.20;2.88;;;36.40;70.00;;;;;;5114168;28;20103;-67
2023/09/14 11:45:55;;;;;;;8.32;3.08;;;36.80;69.40;;;;;;5114068;28;20454;-66
2023/09/14 11:48:22;;;;;;;8.27;3.50;;;36.80;68.90;;;;;;5114212;28;20446;-67
2023/09/14 11:50:48;;;;;;;8.80;3.13;;;37.00;69.20;;;;;;5113874;28;20104;-68
2023/09/14 11:53:18;;;;;;;8.65;3.50;;;37.40;68.90;;;;;;5113202;28;20030;-67
2023/09/14 11:55:53;;;;;;;9.75;3.25;;;37.20;68.90;;;;;;5111570;28;20073;-66
2023/09/14 11:58:23;;;;;;;10.18;3.58;;;37.30;69.50;;;;;;5099369;28;20072;-67
2023/09/14 12:00:50;;;;;;;6.70;3.08;;;37.70;68.80;;;;;;5110353;28;20036;-67
2023/09/14 12:03:16;;;;;;;7.55;3.63;;;38.10;67.90;;;;;;5105280;28;20309;-68
2023/09/14 12:05:41;;;;;;;7.80;3.45;;;37.80;68.50;;;;;;5112517;28;20133;-67
2023/09/14 12:08:17;;;;;;;8.38;3.78;;;37.00;69.10;;;;;;5112340;27;20365;-68
2023/09/14 12:10:45;;;;;;;10.43;3.70;;;35.90;69.70;;;;;;5103861;28;20031;-66
2023/09/14 12:13:15;;;;;;;10.55;3.90;;;34.90;70.20;;;;;;5102504;28;20020;-67
2023/09/14 12:15:46;;;;;;;9.55;3.63;;;33.70;71.10;;;;;;5106361;28;20070;-68
2023/09/14 12:18:13;;;;;;;9.68;3.50;;;32.80;72.00;;;;;;5108482;28;20411;-65
2023/09/14 12:20:40;;;;;;;9.25;3.70;;;32.10;72.50;;;;;;5104598;28;20102;-68
2023/09/14 12:23:07;;;;;;;6.60;3.20;;;31.40;72.80;;;;;;5104213;28;20189;-67
2023/09/14 12:25:34;;;;;;;9.32;3.60;;;30.60;73.80;;;;;;5101059;28;20408;-67
2023/09/14 12:28:03;;;;;;;7.82;3.60;;;30.00;75.10;;;;;;5108986;28;20487;-68
2023/09/14 12:30:29;;;;;;;6.80;3.40;;;29.40;76.00;;;;;;5105302;28;20026;-67
2023/09/14 12:32:55;;;;;;;10.00;3.20;;;29.00;77.20;;;;;;5104184;28;20056;-68
2023/09/14 12:35:21;;;;;;;10.60;4.05;;;28.70;77.30;;;;;;5103508;28;20097;-67
2023/09/14 12:37:52;;;;;;;9.30;3.80;;;28.60;77.60;;;;;;5103246;28;20020;-67
2023/09/14 12:40:18;;;;;;;11.30;4.35;;;28.60;77.50;;;;;;5106928;28;20024;-66